Shanghai Dawn — 3FMN2 — position and weather

sailwx.info

Track history (hours):
 
Tides and Currents Weather Stations Pressure Air Temp Water Temp Dewpoint Dewpoint Depression Visibility Wind Speed Wind Dir Waves Ship Positions

Shanghai Dawn

Last reported at 2016-Dec-30 14:33 UTC. Time now 2017-Jan-24 17:21 UTC.
Position N 01°13' E 103°41'.
Warning: this ship's position is 25 days out of date.

Length 246 m; draft 8 m.

Type: Tanker. MMSI: 356075000.

Date/timePositionNaut miles runAvg speedWind from/ knotsBaromVisibWave heightAir tempDewpointWater temp
2016-Dec-30 14:33N 01°13' E 103°41'  
2016-Dec-26 06:12N 01°14' E 103°44'1 1.7
2016-Dec-26 05:33N 01°15' E 103°46'6 5.5
2016-Dec-26 04:33N 01°12' E 103°51'6 5.0
2016-Dec-26 03:26N 01°16' E 103°55'0 0.1
2016-Dec-26 02:32N 01°16' E 103°55'0 0.1
2016-Dec-26 01:26N 01°16' E 103°55'0 0.1
2016-Dec-26 00:26N 01°16' E 103°55'0 0.0
2016-Dec-25 23:20N 01°16' E 103°55'0 0.0
2016-Dec-25 22:32N 01°16' E 103°55'0 0.0
2016-Dec-25 21:26N 01°16' E 103°55'0 0.0
2016-Dec-25 20:32N 01°16' E 103°55'0 0.1
2016-Dec-25 19:32N 01°16' E 103°55'5 5.6
2016-Dec-25 18:33N 01°12' E 103°51'3 0.2
2016-Dec-25 02:29N 01°13' E 103°48'  
2016-Dec-21 17:33N 01°18' E 103°43'4 3.8
2016-Dec-21 16:33N 01°16' E 103°46'5 5.2
2016-Dec-21 15:33N 01°14' E 103°41'  
Track history (hours):
 
Tides and Currents Weather Stations Pressure Air Temp Water Temp Dewpoint Dewpoint Depression Visibility Wind Speed Wind Dir Waves Ship Positions

Shanghai Dawn

Last reported at 2016-Dec-30 14:33 UTC. Time now 2017-Jan-24 17:21 UTC.
Position N 01°13' E 103°41'.
Warning: this ship's position is 25 days out of date.

Length 246 m; draft 8 m.

Type: Tanker. MMSI: 356075000.

Date/timePositionNaut miles runAvg speedWind from/ knotsBaromVisibWave heightAir tempDewpointWater temp
2016-Dec-30 14:33N 01°13' E 103°41'  
2016-Dec-26 06:12N 01°14' E 103°44'1 1.7
2016-Dec-26 05:33N 01°15' E 103°46'6 5.5
2016-Dec-26 04:33N 01°12' E 103°51'6 5.0
2016-Dec-26 03:26N 01°16' E 103°55'0 0.1
2016-Dec-26 02:32N 01°16' E 103°55'0 0.1
2016-Dec-26 01:26N 01°16' E 103°55'0 0.1
2016-Dec-26 00:26N 01°16' E 103°55'0 0.0
2016-Dec-25 23:20N 01°16' E 103°55'0 0.0
2016-Dec-25 22:32N 01°16' E 103°55'0 0.0
2016-Dec-25 21:26N 01°16' E 103°55'0 0.0
2016-Dec-25 20:32N 01°16' E 103°55'0 0.1
2016-Dec-25 19:32N 01°16' E 103°55'5 5.6
2016-Dec-25 18:33N 01°12' E 103°51'3 0.2
2016-Dec-25 02:29N 01°13' E 103°48'  
2016-Dec-21 17:33N 01°18' E 103°43'4 3.8
2016-Dec-21 16:33N 01°16' E 103°46'5 5.2
2016-Dec-21 15:33N 01°14' E 103°41'  

Dump ship's entire track history